Franklinville, New York
Current Conditions -  °F | °C
As of 1:55 AM on Monday 24 Nov 2014 (Local Time) from KOLE Reporting Station
Light Rain Light Rain  
Wind Chill: 37°   Ceiling: 800
Heat Index: 45°   Visibility: 10mi
Dew Point: 45°   Wind: 20mph
Humidity: 100%   Direction: 140°SE
Pressure: 29.47"   Gusts: 29mph
Location:  42.34°N, 78.46°W
Report Text: KOLE 240655Z AUTO 14017G25KT 10SM -RA OVC008 07/07 A2947 RMK AO2
Loading
Personal Weather Stations






























Interactive Weather Map New forecast layout! Learn more

10-Day Weather Forecast

Advertisements
Track Severe Weather on mobile